sensor_id;sensor_type;location;lat;lon;timestamp;P1;durP1;ratioP1;P2;durP2;ratioP2
17650;SDS011;26663;59.302;18.082;2023-08-24T00:01:46;4.95;;;3.33;;
17650;SDS011;26663;59.302;18.082;2023-08-24T00:04:49;11.95;;;3.08;;
17650;SDS011;26663;59.302;18.082;2023-08-24T00:07:53;18.60;;;3.10;;
17650;SDS011;26663;59.302;18.082;2023-08-24T00:10:57;5.20;;;3.03;;
17650;SDS011;26663;59.302;18.082;2023-08-24T00:14:03;7.45;;;3.05;;
17650;SDS011;26663;59.302;18.082;2023-08-24T00:17:07;12.45;;;3.47;;
17650;SDS011;26663;59.302;18.082;2023-08-24T00:20:11;3.67;;;2.65;;
17650;SDS011;26663;59.302;18.082;2023-08-24T00:23:15;3.63;;;3.33;;
17650;SDS011;26663;59.302;18.082;2023-08-24T00:26:20;3.40;;;3.00;;
17650;SDS011;26663;59.302;18.082;2023-08-24T00:29:25;3.25;;;2.88;;
17650;SDS011;26663;59.302;18.082;2023-08-24T00:32:29;2.85;;;2.75;;
17650;SDS011;26663;59.302;18.082;2023-08-24T00:35:36;4.80;;;3.47;;
17650;SDS011;26663;59.302;18.082;2023-08-24T00:38:40;3.63;;;3.10;;
17650;SDS011;26663;59.302;18.082;2023-08-24T00:41:45;3.78;;;3.47;;
17650;SDS011;26663;59.302;18.082;2023-08-24T00:44:50;3.67;;;3.40;;
17650;SDS011;26663;59.302;18.082;2023-08-24T00:47:54;7.53;;;3.40;;
17650;SDS011;26663;59.302;18.082;2023-08-24T00:50:59;4.93;;;3.70;;
17650;SDS011;26663;59.302;18.082;2023-08-24T00:54:03;3.80;;;3.50;;
17650;SDS011;26663;59.302;18.082;2023-08-24T00:57:08;9.23;;;3.83;;
17650;SDS011;26663;59.302;18.082;2023-08-24T01:00:14;7.10;;;3.78;;
17650;SDS011;26663;59.302;18.082;2023-08-24T01:03:18;3.72;;;3.47;;
17650;SDS011;26663;59.302;18.082;2023-08-24T01:06:22;4.10;;;3.80;;
17650;SDS011;26663;59.302;18.082;2023-08-24T01:09:26;4.03;;;3.58;;
17650;SDS011;26663;59.302;18.082;2023-08-24T01:12:32;3.75;;;3.50;;
17650;SDS011;26663;59.302;18.082;2023-08-24T01:15:46;3.45;;;3.25;;
17650;SDS011;26663;59.302;18.082;2023-08-24T01:18:52;3.63;;;3.45;;
17650;SDS011;26663;59.302;18.082;2023-08-24T01:21:57;3.78;;;3.67;;
17650;SDS011;26663;59.302;18.082;2023-08-24T01:25:06;3.38;;;3.28;;
17650;SDS011;26663;59.302;18.082;2023-08-24T01:28:17;3.58;;;3.28;;
17650;SDS011;26663;59.302;18.082;2023-08-24T01:31:22;3.85;;;3.60;;
17650;SDS011;26663;59.302;18.082;2023-08-24T01:34:28;3.55;;;3.40;;
17650;SDS011;26663;59.302;18.082;2023-08-24T01:37:32;4.22;;;3.25;;
17650;SDS011;26663;59.302;18.082;2023-08-24T01:40:36;4.25;;;3.67;;
17650;SDS011;26663;59.302;18.082;2023-08-24T01:44:00;3.67;;;3.58;;
17650;SDS011;26663;59.302;18.082;2023-08-24T01:47:05;3.58;;;3.35;;
17650;SDS011;26663;59.302;18.082;2023-08-24T01:50:11;3.30;;;3.10;;
17650;SDS011;26663;59.302;18.082;2023-08-24T01:53:15;3.30;;;3.00;;
17650;SDS011;26663;59.302;18.082;2023-08-24T01:56:19;3.38;;;3.13;;
17650;SDS011;26663;59.302;18.082;2023-08-24T01:59:24;3.47;;;3.20;;
17650;SDS011;26663;59.302;18.082;2023-08-24T02:02:28;3.72;;;3.45;;
17650;SDS011;26663;59.302;18.082;2023-08-24T02:05:32;3.67;;;3.35;;
17650;SDS011;26663;59.302;18.082;2023-08-24T02:08:36;4.00;;;3.70;;
17650;SDS011;26663;59.302;18.082;2023-08-24T02:11:40;3.92;;;3.15;;
17650;SDS011;26663;59.302;18.082;2023-08-24T02:14:45;5.47;;;3.40;;
17650;SDS011;26663;59.302;18.082;2023-08-24T02:17:50;3.05;;;2.95;;
17650;SDS011;26663;59.302;18.082;2023-08-24T02:20:54;3.38;;;3.17;;
17650;SDS011;26663;59.302;18.082;2023-08-24T02:23:58;6.45;;;3.38;;
17650;SDS011;26663;59.302;18.082;2023-08-24T02:27:02;3.47;;;3.28;;
17650;SDS011;26663;59.302;18.082;2023-08-24T02:30:09;4.05;;;3.70;;
17650;SDS011;26663;59.302;18.082;2023-08-24T02:33:14;3.33;;;3.17;;
17650;SDS011;26663;59.302;18.082;2023-08-24T02:36:17;3.90;;;3.15;;
17650;SDS011;26663;59.302;18.082;2023-08-24T02:39:21;4.95;;;3.60;;
17650;SDS011;26663;59.302;18.082;2023-08-24T02:42:25;3.90;;;3.20;;
17650;SDS011;26663;59.302;18.082;2023-08-24T02:45:30;5.68;;;3.40;;
17650;SDS011;26663;59.302;18.082;2023-08-24T02:48:34;2.85;;;2.75;;
17650;SDS011;26663;59.302;18.082;2023-08-24T02:51:38;4.55;;;3.03;;
17650;SDS011;26663;59.302;18.082;2023-08-24T02:54:43;3.25;;;3.08;;
17650;SDS011;26663;59.302;18.082;2023-08-24T02:57:46;3.58;;;3.28;;
17650;SDS011;26663;59.302;18.082;2023-08-24T03:00:52;3.38;;;3.08;;
17650;SDS011;26663;59.302;18.082;2023-08-24T03:03:57;3.33;;;3.13;;
17650;SDS011;26663;59.302;18.082;2023-08-24T03:07:01;4.78;;;2.83;;
17650;SDS011;26663;59.302;18.082;2023-08-24T03:10:05;3.53;;;2.90;;
17650;SDS011;26663;59.302;18.082;2023-08-24T03:13:10;3.10;;;2.88;;
17650;SDS011;26663;59.302;18.082;2023-08-24T03:16:15;3.30;;;3.10;;
17650;SDS011;26663;59.302;18.082;2023-08-24T03:19:19;3.70;;;3.30;;
17650;SDS011;26663;59.302;18.082;2023-08-24T03:22:23;5.35;;;3.13;;
17650;SDS011;26663;59.302;18.082;2023-08-24T03:25:26;17.80;;;3.70;;
17650;SDS011;26663;59.302;18.082;2023-08-24T03:28:30;10.52;;;3.63;;
17650;SDS011;26663;59.302;18.082;2023-08-24T03:31:36;7.00;;;3.15;;
17650;SDS011;26663;59.302;18.082;2023-08-24T03:34:40;7.43;;;3.45;;
17650;SDS011;26663;59.302;18.082;2023-08-24T03:37:44;9.60;;;3.10;;
17650;SDS011;26663;59.302;18.082;2023-08-24T03:40:48;13.52;;;3.22;;
17650;SDS011;26663;59.302;18.082;2023-08-24T03:43:53;10.13;;;2.70;;
17650;SDS011;26663;59.302;18.082;2023-08-24T03:46:58;15.50;;;3.30;;
17650;SDS011;26663;59.302;18.082;2023-08-24T03:50:02;8.32;;;3.05;;
17650;SDS011;26663;59.302;18.082;2023-08-24T03:53:06;6.55;;;2.95;;
17650;SDS011;26663;59.302;18.082;2023-08-24T03:56:10;2.90;;;2.80;;
17650;SDS011;26663;59.302;18.082;2023-08-24T03:59:14;9.48;;;2.95;;
17650;SDS011;26663;59.302;18.082;2023-08-24T04:02:19;2.65;;;2.45;;
17650;SDS011;26663;59.302;18.082;2023-08-24T04:05:23;12.95;;;3.25;;
17650;SDS011;26663;59.302;18.082;2023-08-24T04:08:27;3.95;;;2.83;;
17650;SDS011;26663;59.302;18.082;2023-08-24T04:11:32;4.15;;;2.80;;
17650;SDS011;26663;59.302;18.082;2023-08-24T04:14:35;5.70;;;3.10;;
17650;SDS011;26663;59.302;18.082;2023-08-24T04:17:41;3.47;;;2.78;;
17650;SDS011;26663;59.302;18.082;2023-08-24T04:20:45;3.03;;;2.80;;
17650;SDS011;26663;59.302;18.082;2023-08-24T04:23:49;2.95;;;2.70;;
17650;SDS011;26663;59.302;18.082;2023-08-24T04:26:53;3.13;;;2.92;;
17650;SDS011;26663;59.302;18.082;2023-08-24T04:29:57;6.75;;;2.72;;
17650;SDS011;26663;59.302;18.082;2023-08-24T04:33:02;2.80;;;2.60;;
17650;SDS011;26663;59.302;18.082;2023-08-24T04:36:06;3.40;;;3.30;;
17650;SDS011;26663;59.302;18.082;2023-08-24T04:39:10;3.38;;;2.70;;
17650;SDS011;26663;59.302;18.082;2023-08-24T04:42:14;3.90;;;2.65;;
17650;SDS011;26663;59.302;18.082;2023-08-24T04:45:18;3.28;;;3.00;;
17650;SDS011;26663;59.302;18.082;2023-08-24T04:48:24;4.03;;;3.00;;
17650;SDS011;26663;59.302;18.082;2023-08-24T04:51:28;3.03;;;2.80;;
17650;SDS011;26663;59.302;18.082;2023-08-24T04:54:32;3.33;;;2.90;;
17650;SDS011;26663;59.302;18.082;2023-08-24T04:57:36;3.33;;;2.70;;
17650;SDS011;26663;59.302;18.082;2023-08-24T05:00:40;4.07;;;2.92;;
17650;SDS011;26663;59.302;18.082;2023-08-24T05:03:45;5.05;;;2.70;;
17650;SDS011;26663;59.302;18.082;2023-08-24T05:06:49;3.05;;;2.63;;
17650;SDS011;26663;59.302;18.082;2023-08-24T05:09:53;5.55;;;2.70;;
17650;SDS011;26663;59.302;18.082;2023-08-24T05:12:57;2.88;;;2.67;;
17650;SDS011;26663;59.302;18.082;2023-08-24T05:16:03;4.00;;;3.20;;
17650;SDS011;26663;59.302;18.082;2023-08-24T05:19:09;3.20;;;2.60;;
17650;SDS011;26663;59.302;18.082;2023-08-24T05:22:12;10.15;;;2.92;;
17650;SDS011;26663;59.302;18.082;2023-08-24T05:25:17;4.20;;;2.70;;
17650;SDS011;26663;59.302;18.082;2023-08-24T05:28:21;3.25;;;2.95;;
17650;SDS011;26663;59.302;18.082;2023-08-24T05:31:24;2.67;;;2.58;;
17650;SDS011;26663;59.302;18.082;2023-08-24T05:34:29;4.85;;;2.47;;
17650;SDS011;26663;59.302;18.082;2023-08-24T05:37:34;5.32;;;2.80;;
17650;SDS011;26663;59.302;18.082;2023-08-24T05:40:38;3.08;;;2.88;;
17650;SDS011;26663;59.302;18.082;2023-08-24T05:43:43;4.10;;;2.80;;
17650;SDS011;26663;59.302;18.082;2023-08-24T05:46:47;4.85;;;2.75;;
17650;SDS011;26663;59.302;18.082;2023-08-24T05:49:52;6.03;;;2.72;;
17650;SDS011;26663;59.302;18.082;2023-08-24T05:52:56;2.92;;;2.58;;
17650;SDS011;26663;59.302;18.082;2023-08-24T05:56:00;3.67;;;2.70;;
17650;SDS011;26663;59.302;18.082;2023-08-24T05:59:03;4.13;;;2.70;;
17650;SDS011;26663;59.302;18.082;2023-08-24T06:02:07;5.88;;;2.83;;
17650;SDS011;26663;59.302;18.082;2023-08-24T06:05:12;6.18;;;2.90;;
17650;SDS011;26663;59.302;18.082;2023-08-24T06:08:16;5.53;;;3.00;;
17650;SDS011;26663;59.302;18.082;2023-08-24T06:11:20;6.57;;;3.00;;
17650;SDS011;26663;59.302;18.082;2023-08-24T06:14:25;4.55;;;2.85;;
17650;SDS011;26663;59.302;18.082;2023-08-24T06:17:28;5.30;;;2.92;;
17650;SDS011;26663;59.302;18.082;2023-08-24T06:20:34;3.45;;;3.05;;
17650;SDS011;26663;59.302;18.082;2023-08-24T06:23:38;4.20;;;2.78;;
17650;SDS011;26663;59.302;18.082;2023-08-24T06:26:42;5.68;;;3.08;;
17650;SDS011;26663;59.302;18.082;2023-08-24T06:29:45;3.42;;;3.08;;
17650;SDS011;26663;59.302;18.082;2023-08-24T06:32:49;3.53;;;2.60;;
17650;SDS011;26663;59.302;18.082;2023-08-24T06:35:55;3.50;;;3.17;;
17650;SDS011;26663;59.302;18.082;2023-08-24T06:38:58;2.65;;;2.45;;
17650;SDS011;26663;59.302;18.082;2023-08-24T06:42:02;6.43;;;3.08;;
17650;SDS011;26663;59.302;18.082;2023-08-24T06:45:07;4.05;;;2.70;;
17650;SDS011;26663;59.302;18.082;2023-08-24T06:48:12;2.70;;;2.60;;
17650;SDS011;26663;59.302;18.082;2023-08-24T06:51:17;5.60;;;3.25;;
17650;SDS011;26663;59.302;18.082;2023-08-24T06:54:21;3.63;;;2.80;;
17650;SDS011;26663;59.302;18.082;2023-08-24T06:57:28;5.03;;;3.13;;
17650;SDS011;26663;59.302;18.082;2023-08-24T07:00:32;5.75;;;2.90;;
17650;SDS011;26663;59.302;18.082;2023-08-24T07:03:37;4.80;;;2.90;;
17650;SDS011;26663;59.302;18.082;2023-08-24T07:06:43;3.72;;;2.80;;
17650;SDS011;26663;59.302;18.082;2023-08-24T07:09:47;3.72;;;2.83;;
17650;SDS011;26663;59.302;18.082;2023-08-24T07:12:51;3.67;;;2.97;;
17650;SDS011;26663;59.302;18.082;2023-08-24T07:15:55;4.13;;;2.70;;
17650;SDS011;26663;59.302;18.082;2023-08-24T07:18:59;8.60;;;2.60;;
17650;SDS011;26663;59.302;18.082;2023-08-24T07:22:04;7.28;;;2.58;;
17650;SDS011;26663;59.302;18.082;2023-08-24T07:25:08;4.85;;;2.53;;
17650;SDS011;26663;59.302;18.082;2023-08-24T07:28:13;15.90;;;3.30;;
17650;SDS011;26663;59.302;18.082;2023-08-24T07:31:17;4.53;;;2.70;;
17650;SDS011;26663;59.302;18.082;2023-08-24T07:34:21;5.45;;;2.83;;
17650;SDS011;26663;59.302;18.082;2023-08-24T07:37:27;4.60;;;2.90;;
17650;SDS011;26663;59.302;18.082;2023-08-24T07:40:31;5.00;;;2.72;;
17650;SDS011;26663;59.302;18.082;2023-08-24T07:43:35;4.93;;;2.75;;
17650;SDS011;26663;59.302;18.082;2023-08-24T07:46:39;8.57;;;3.10;;
17650;SDS011;26663;59.302;18.082;2023-08-24T07:49:43;2.80;;;2.55;;
17650;SDS011;26663;59.302;18.082;2023-08-24T07:52:48;4.13;;;2.40;;
17650;SDS011;26663;59.302;18.082;2023-08-24T07:55:53;2.95;;;2.47;;
17650;SDS011;26663;59.302;18.082;2023-08-24T07:58:59;3.85;;;2.63;;
17650;SDS011;26663;59.302;18.082;2023-08-24T08:02:03;6.75;;;2.67;;
17650;SDS011;26663;59.302;18.082;2023-08-24T08:05:07;10.52;;;2.90;;
17650;SDS011;26663;59.302;18.082;2023-08-24T08:08:14;7.47;;;2.83;;
17650;SDS011;26663;59.302;18.082;2023-08-24T08:11:18;4.57;;;2.33;;
17650;SDS011;26663;59.302;18.082;2023-08-24T08:14:23;5.45;;;2.60;;
17650;SDS011;26663;59.302;18.082;2023-08-24T08:17:29;3.05;;;2.85;;
17650;SDS011;26663;59.302;18.082;2023-08-24T08:20:35;3.08;;;2.60;;
17650;SDS011;26663;59.302;18.082;2023-08-24T08:23:40;3.47;;;2.25;;
17650;SDS011;26663;59.302;18.082;2023-08-24T08:26:44;3.20;;;2.60;;
17650;SDS011;26663;59.302;18.082;2023-08-24T08:29:48;7.88;;;3.03;;
17650;SDS011;26663;59.302;18.082;2023-08-24T08:32:51;4.75;;;2.83;;
17650;SDS011;26663;59.302;18.082;2023-08-24T08:35:56;4.50;;;2.50;;
17650;SDS011;26663;59.302;18.082;2023-08-24T08:39:02;3.75;;;2.80;;
17650;SDS011;26663;59.302;18.082;2023-08-24T08:42:10;4.18;;;2.50;;
17650;SDS011;26663;59.302;18.082;2023-08-24T08:45:15;5.22;;;2.67;;
17650;SDS011;26663;59.302;18.082;2023-08-24T08:48:20;4.63;;;2.50;;
17650;SDS011;26663;59.302;18.082;2023-08-24T08:51:25;5.63;;;2.90;;
17650;SDS011;26663;59.302;18.082;2023-08-24T08:54:30;3.50;;;2.80;;
17650;SDS011;26663;59.302;18.082;2023-08-24T08:57:34;5.07;;;2.60;;
17650;SDS011;26663;59.302;18.082;2023-08-24T09:00:39;14.20;;;2.85;;
17650;SDS011;26663;59.302;18.082;2023-08-24T09:03:43;4.70;;;2.13;;
17650;SDS011;26663;59.302;18.082;2023-08-24T09:06:48;2.47;;;2.28;;
17650;SDS011;26663;59.302;18.082;2023-08-24T09:09:53;3.50;;;2.58;;
17650;SDS011;26663;59.302;18.082;2023-08-24T09:12:57;3.28;;;2.50;;
17650;SDS011;26663;59.302;18.082;2023-08-24T09:16:05;2.38;;;2.28;;
17650;SDS011;26663;59.302;18.082;2023-08-24T09:19:11;3.58;;;2.47;;
17650;SDS011;26663;59.302;18.082;2023-08-24T09:22:15;3.67;;;2.38;;
17650;SDS011;26663;59.302;18.082;2023-08-24T09:25:20;6.32;;;2.50;;
17650;SDS011;26663;59.302;18.082;2023-08-24T09:28:24;3.05;;;2.40;;
17650;SDS011;26663;59.302;18.082;2023-08-24T09:31:35;4.57;;;2.45;;
17650;SDS011;26663;59.302;18.082;2023-08-24T09:34:39;9.70;;;2.83;;
17650;SDS011;26663;59.302;18.082;2023-08-24T09:37:43;4.82;;;2.30;;
17650;SDS011;26663;59.302;18.082;2023-08-24T09:40:52;7.78;;;2.65;;
17650;SDS011;26663;59.302;18.082;2023-08-24T09:44:02;3.75;;;2.53;;
17650;SDS011;26663;59.302;18.082;2023-08-24T09:47:08;3.45;;;2.33;;
17650;SDS011;26663;59.302;18.082;2023-08-24T09:50:13;3.03;;;2.70;;
17650;SDS011;26663;59.302;18.082;2023-08-24T09:53:18;3.17;;;2.63;;
17650;SDS011;26663;59.302;18.082;2023-08-24T09:56:24;3.15;;;2.40;;
17650;SDS011;26663;59.302;18.082;2023-08-24T09:59:29;2.45;;;2.20;;
17650;SDS011;26663;59.302;18.082;2023-08-24T10:02:34;4.00;;;2.40;;
17650;SDS011;26663;59.302;18.082;2023-08-24T10:05:40;3.78;;;3.00;;
17650;SDS011;26663;59.302;18.082;2023-08-24T10:09:01;3.13;;;2.83;;
17650;SDS011;26663;59.302;18.082;2023-08-24T10:12:07;2.72;;;2.53;;
17650;SDS011;26663;59.302;18.082;2023-08-24T10:15:12;4.80;;;2.65;;
17650;SDS011;26663;59.302;18.082;2023-08-24T10:18:17;4.22;;;2.90;;
17650;SDS011;26663;59.302;18.082;2023-08-24T10:21:22;6.20;;;2.90;;
17650;SDS011;26663;59.302;18.082;2023-08-24T10:24:27;4.28;;;2.60;;
17650;SDS011;26663;59.302;18.082;2023-08-24T10:27:33;5.70;;;2.30;;
17650;SDS011;26663;59.302;18.082;2023-08-24T10:30:37;4.68;;;2.28;;
17650;SDS011;26663;59.302;18.082;2023-08-24T10:33:41;3.45;;;2.28;;
17650;SDS011;26663;59.302;18.082;2023-08-24T10:36:47;10.77;;;2.78;;
17650;SDS011;26663;59.302;18.082;2023-08-24T10:39:51;4.18;;;3.00;;
17650;SDS011;26663;59.302;18.082;2023-08-24T10:42:56;2.10;;;2.00;;
17650;SDS011;26663;59.302;18.082;2023-08-24T10:46:01;5.38;;;2.40;;
17650;SDS011;26663;59.302;18.082;2023-08-24T10:49:07;4.78;;;2.42;;
17650;SDS011;26663;59.302;18.082;2023-08-24T10:52:17;5.07;;;1.98;;
17650;SDS011;26663;59.302;18.082;2023-08-24T10:55:23;4.25;;;2.17;;
17650;SDS011;26663;59.302;18.082;2023-08-24T10:58:34;3.38;;;2.30;;
17650;SDS011;26663;59.302;18.082;2023-08-24T11:01:38;4.65;;;2.30;;
17650;SDS011;26663;59.302;18.082;2023-08-24T11:04:56;6.22;;;2.17;;
17650;SDS011;26663;59.302;18.082;2023-08-24T11:08:07;2.75;;;1.95;;
17650;SDS011;26663;59.302;18.082;2023-08-24T11:11:17;2.60;;;1.90;;
17650;SDS011;26663;59.302;18.082;2023-08-24T11:14:23;3.13;;;2.13;;
17650;SDS011;26663;59.302;18.082;2023-08-24T11:17:29;2.08;;;1.98;;
17650;SDS011;26663;59.302;18.082;2023-08-24T11:20:35;6.95;;;1.63;;
17650;SDS011;26663;59.302;18.082;2023-08-24T11:23:39;3.25;;;1.60;;
17650;SDS011;26663;59.302;18.082;2023-08-24T11:26:44;1.80;;;1.70;;
17650;SDS011;26663;59.302;18.082;2023-08-24T11:29:58;1.50;;;1.45;;
17650;SDS011;26663;59.302;18.082;2023-08-24T11:33:03;2.58;;;1.77;;
17650;SDS011;26663;59.302;18.082;2023-08-24T11:36:08;3.25;;;1.92;;
17650;SDS011;26663;59.302;18.082;2023-08-24T11:39:14;1.83;;;1.75;;
17650;SDS011;26663;59.302;18.082;2023-08-24T11:42:20;3.20;;;1.70;;
17650;SDS011;26663;59.302;18.082;2023-08-24T11:45:28;3.70;;;1.80;;
17650;SDS011;26663;59.302;18.082;2023-08-24T11:48:34;3.03;;;2.22;;
17650;SDS011;26663;59.302;18.082;2023-08-24T11:51:39;7.03;;;1.92;;
17650;SDS011;26663;59.302;18.082;2023-08-24T11:54:45;2.20;;;2.10;;
17650;SDS011;26663;59.302;18.082;2023-08-24T11:57:49;2.97;;;1.90;;
17650;SDS011;26663;59.302;18.082;2023-08-24T12:00:54;3.70;;;1.83;;
17650;SDS011;26663;59.302;18.082;2023-08-24T12:03:58;2.47;;;1.70;;
17650;SDS011;26663;59.302;18.082;2023-08-24T12:07:07;1.83;;;1.70;;
17650;SDS011;26663;59.302;18.082;2023-08-24T12:10:12;1.92;;;1.80;;
17650;SDS011;26663;59.302;18.082;2023-08-24T12:13:16;3.55;;;2.03;;
17650;SDS011;26663;59.302;18.082;2023-08-24T12:16:22;4.13;;;2.13;;
17650;SDS011;26663;59.302;18.082;2023-08-24T12:19:26;2.05;;;1.98;;
17650;SDS011;26663;59.302;18.082;2023-08-24T12:22:30;1.70;;;1.70;;
17650;SDS011;26663;59.302;18.082;2023-08-24T12:25:37;5.03;;;1.95;;
17650;SDS011;26663;59.302;18.082;2023-08-24T12:28:42;1.83;;;1.65;;
17650;SDS011;26663;59.302;18.082;2023-08-24T12:31:47;5.25;;;1.90;;
17650;SDS011;26663;59.302;18.082;2023-08-24T12:34:51;1.88;;;1.70;;
17650;SDS011;26663;59.302;18.082;2023-08-24T12:37:54;1.88;;;1.50;;
17650;SDS011;26663;59.302;18.082;2023-08-24T12:40:58;3.78;;;1.80;;
17650;SDS011;26663;59.302;18.082;2023-08-24T12:44:02;2.88;;;2.00;;
17650;SDS011;26663;59.302;18.082;2023-08-24T12:47:09;2.50;;;1.95;;
17650;SDS011;26663;59.302;18.082;2023-08-24T12:50:13;6.63;;;1.90;;
17650;SDS011;26663;59.302;18.082;2023-08-24T12:53:17;1.80;;;1.70;;
17650;SDS011;26663;59.302;18.082;2023-08-24T12:56:21;1.92;;;1.60;;
17650;SDS011;26663;59.302;18.082;2023-08-24T12:59:24;1.63;;;1.50;;
17650;SDS011;26663;59.302;18.082;2023-08-24T13:02:30;1.90;;;1.73;;
17650;SDS011;26663;59.302;18.082;2023-08-24T13:05:40;3.45;;;1.60;;
17650;SDS011;26663;59.302;18.082;2023-08-24T13:08:44;2.72;;;1.70;;
17650;SDS011;26663;59.302;18.082;2023-08-24T13:11:48;4.07;;;1.90;;
17650;SDS011;26663;59.302;18.082;2023-08-24T13:14:52;3.50;;;1.70;;
17650;SDS011;26663;59.302;18.082;2023-08-24T13:17:57;1.85;;;1.75;;
17650;SDS011;26663;59.302;18.082;2023-08-24T13:21:01;1.90;;;1.80;;
17650;SDS011;26663;59.302;18.082;2023-08-24T13:24:05;1.65;;;1.55;;
17650;SDS011;26663;59.302;18.082;2023-08-24T13:27:09;1.80;;;1.52;;
17650;SDS011;26663;59.302;18.082;2023-08-24T13:30:13;1.30;;;1.30;;
17650;SDS011;26663;59.302;18.082;2023-08-24T13:33:18;3.83;;;1.60;;
17650;SDS011;26663;59.302;18.082;2023-08-24T13:36:22;1.73;;;1.63;;
17650;SDS011;26663;59.302;18.082;2023-08-24T13:39:26;1.60;;;1.50;;
17650;SDS011;26663;59.302;18.082;2023-08-24T13:42:30;4.88;;;1.58;;
17650;SDS011;26663;59.302;18.082;2023-08-24T13:45:34;2.95;;;1.73;;
17650;SDS011;26663;59.302;18.082;2023-08-24T13:48:40;2.40;;;1.73;;
17650;SDS011;26663;59.302;18.082;2023-08-24T13:51:43;1.90;;;1.58;;
17650;SDS011;26663;59.302;18.082;2023-08-24T13:54:47;7.15;;;1.52;;
17650;SDS011;26663;59.302;18.082;2023-08-24T13:58:11;2.05;;;1.50;;
17650;SDS011;26663;59.302;18.082;2023-08-24T14:01:15;1.50;;;1.50;;
17650;SDS011;26663;59.302;18.082;2023-08-24T14:04:20;1.73;;;1.60;;
17650;SDS011;26663;59.302;18.082;2023-08-24T14:07:24;3.08;;;1.63;;
17650;SDS011;26663;59.302;18.082;2023-08-24T14:10:27;1.70;;;1.60;;
17650;SDS011;26663;59.302;18.082;2023-08-24T14:13:32;4.35;;;1.60;;
17650;SDS011;26663;59.302;18.082;2023-08-24T14:16:35;2.50;;;1.90;;
17650;SDS011;26663;59.302;18.082;2023-08-24T14:19:41;2.05;;;1.65;;
17650;SDS011;26663;59.302;18.082;2023-08-24T14:22:44;3.45;;;1.77;;
17650;SDS011;26663;59.302;18.082;2023-08-24T14:25:50;1.55;;;1.55;;
17650;SDS011;26663;59.302;18.082;2023-08-24T14:28:55;1.48;;;1.48;;
17650;SDS011;26663;59.302;18.082;2023-08-24T14:32:00;2.35;;;1.80;;
17650;SDS011;26663;59.302;18.082;2023-08-24T14:35:05;5.93;;;1.90;;
17650;SDS011;26663;59.302;18.082;2023-08-24T14:38:09;2.22;;;1.83;;
17650;SDS011;26663;59.302;18.082;2023-08-24T14:41:13;2.05;;;1.60;;
17650;SDS011;26663;59.302;18.082;2023-08-24T14:44:17;1.80;;;1.70;;
17650;SDS011;26663;59.302;18.082;2023-08-24T14:47:22;2.38;;;1.70;;
17650;SDS011;26663;59.302;18.082;2023-08-24T14:50:27;2.53;;;1.80;;
17650;SDS011;26663;59.302;18.082;2023-08-24T14:53:31;1.67;;;1.58;;
17650;SDS011;26663;59.302;18.082;2023-08-24T14:56:35;3.45;;;1.80;;
17650;SDS011;26663;59.302;18.082;2023-08-24T14:59:39;4.15;;;2.00;;
17650;SDS011;26663;59.302;18.082;2023-08-24T15:02:42;4.75;;;1.85;;
17650;SDS011;26663;59.302;18.082;2023-08-24T15:05:55;1.92;;;1.48;;
17650;SDS011;26663;59.302;18.082;2023-08-24T15:09:02;2.05;;;1.95;;
17650;SDS011;26663;59.302;18.082;2023-08-24T15:12:07;4.65;;;2.67;;
17650;SDS011;26663;59.302;18.082;2023-08-24T15:15:10;2.50;;;1.70;;
17650;SDS011;26663;59.302;18.082;2023-08-24T15:18:16;1.75;;;1.65;;
17650;SDS011;26663;59.302;18.082;2023-08-24T15:21:21;1.52;;;1.52;;
17650;SDS011;26663;59.302;18.082;2023-08-24T15:24:25;1.35;;;1.35;;
17650;SDS011;26663;59.302;18.082;2023-08-24T15:27:30;1.70;;;1.60;;
17650;SDS011;26663;59.302;18.082;2023-08-24T15:30:34;2.30;;;1.90;;
17650;SDS011;26663;59.302;18.082;2023-08-24T15:33:37;1.75;;;1.60;;
17650;SDS011;26663;59.302;18.082;2023-08-24T15:36:43;2.58;;;1.77;;
17650;SDS011;26663;59.302;18.082;2023-08-24T15:39:47;4.72;;;1.92;;
17650;SDS011;26663;59.302;18.082;2023-08-24T15:42:51;2.03;;;1.42;;
17650;SDS011;26663;59.302;18.082;2023-08-24T15:45:54;1.83;;;1.75;;
17650;SDS011;26663;59.302;18.082;2023-08-24T15:48:58;1.75;;;1.70;;
17650;SDS011;26663;59.302;18.082;2023-08-24T15:52:05;1.65;;;1.55;;
17650;SDS011;26663;59.302;18.082;2023-08-24T15:55:09;1.38;;;1.38;;
17650;SDS011;26663;59.302;18.082;2023-08-24T15:58:13;2.13;;;1.52;;
17650;SDS011;26663;59.302;18.082;2023-08-24T16:01:17;1.92;;;1.80;;
17650;SDS011;26663;59.302;18.082;2023-08-24T16:04:21;2.85;;;2.70;;
17650;SDS011;26663;59.302;18.082;2023-08-24T16:07:26;18.85;;;10.18;;
17650;SDS011;26663;59.302;18.082;2023-08-24T16:10:30;3.38;;;2.00;;
17650;SDS011;26663;59.302;18.082;2023-08-24T16:13:34;3.10;;;1.80;;
17650;SDS011;26663;59.302;18.082;2023-08-24T16:16:38;2.20;;;1.70;;
17650;SDS011;26663;59.302;18.082;2023-08-24T16:19:42;2.08;;;1.70;;
17650;SDS011;26663;59.302;18.082;2023-08-24T16:22:48;2.40;;;1.80;;
17650;SDS011;26663;59.302;18.082;2023-08-24T16:25:52;7.68;;;1.77;;
17650;SDS011;26663;59.302;18.082;2023-08-24T16:28:56;1.70;;;1.60;;
17650;SDS011;26663;59.302;18.082;2023-08-24T16:32:00;2.05;;;1.65;;
17650;SDS011;26663;59.302;18.082;2023-08-24T16:35:04;2.30;;;1.80;;
17650;SDS011;26663;59.302;18.082;2023-08-24T16:38:10;2.72;;;1.63;;
17650;SDS011;26663;59.302;18.082;2023-08-24T16:41:14;2.75;;;2.05;;
17650;SDS011;26663;59.302;18.082;2023-08-24T16:44:18;4.07;;;2.10;;
17650;SDS011;26663;59.302;18.082;2023-08-24T16:47:22;2.20;;;2.08;;
17650;SDS011;26663;59.302;18.082;2023-08-24T16:50:25;3.13;;;2.00;;
17650;SDS011;26663;59.302;18.082;2023-08-24T16:53:30;2.67;;;2.00;;
17650;SDS011;26663;59.302;18.082;2023-08-24T16:56:34;2.03;;;1.90;;
17650;SDS011;26663;59.302;18.082;2023-08-24T16:59:38;2.03;;;1.80;;
17650;SDS011;26663;59.302;18.082;2023-08-24T17:02:42;3.15;;;2.78;;
17650;SDS011;26663;59.302;18.082;2023-08-24T17:05:46;5.80;;;3.53;;
17650;SDS011;26663;59.302;18.082;2023-08-24T17:08:51;16.63;;;6.15;;
17650;SDS011;26663;59.302;18.082;2023-08-24T17:11:55;20.30;;;7.00;;
17650;SDS011;26663;59.302;18.082;2023-08-24T17:14:59;9.13;;;5.07;;
17650;SDS011;26663;59.302;18.082;2023-08-24T17:18:03;15.27;;;7.45;;
17650;SDS011;26663;59.302;18.082;2023-08-24T17:21:07;4.93;;;4.38;;
17650;SDS011;26663;59.302;18.082;2023-08-24T17:24:13;4.78;;;2.72;;
17650;SDS011;26663;59.302;18.082;2023-08-24T17:27:17;3.17;;;2.90;;
17650;SDS011;26663;59.302;18.082;2023-08-24T17:30:20;4.72;;;2.13;;
17650;SDS011;26663;59.302;18.082;2023-08-24T17:33:24;15.40;;;6.38;;
17650;SDS011;26663;59.302;18.082;2023-08-24T17:36:28;4.00;;;2.83;;
17650;SDS011;26663;59.302;18.082;2023-08-24T17:39:33;9.27;;;4.35;;
17650;SDS011;26663;59.302;18.082;2023-08-24T17:42:37;3.35;;;3.15;;
17650;SDS011;26663;59.302;18.082;2023-08-24T17:45:42;4.35;;;3.10;;
17650;SDS011;26663;59.302;18.082;2023-08-24T17:48:46;2.72;;;2.53;;
17650;SDS011;26663;59.302;18.082;2023-08-24T17:51:50;2.67;;;2.53;;
17650;SDS011;26663;59.302;18.082;2023-08-24T17:54:55;4.93;;;3.45;;
17650;SDS011;26663;59.302;18.082;2023-08-24T17:57:59;3.00;;;2.90;;
17650;SDS011;26663;59.302;18.082;2023-08-24T18:01:02;8.25;;;3.67;;
17650;SDS011;26663;59.302;18.082;2023-08-24T18:04:06;4.82;;;3.80;;
17650;SDS011;26663;59.302;18.082;2023-08-24T18:07:10;3.40;;;3.20;;
17650;SDS011;26663;59.302;18.082;2023-08-24T18:10:15;3.70;;;3.40;;
17650;SDS011;26663;59.302;18.082;2023-08-24T18:13:19;8.20;;;4.82;;
17650;SDS011;26663;59.302;18.082;2023-08-24T18:16:23;4.13;;;3.70;;